createdAt,value
2022-12-17T00:01:55.094Z,6.80
2022-12-17T00:04:42.776Z,6.90
2022-12-17T00:07:35.415Z,6.90
2022-12-17T00:10:20.905Z,6.90
2022-12-17T00:13:06.980Z,7.00
2022-12-17T00:15:53.333Z,7.00
2022-12-17T00:18:39.692Z,7.00
2022-12-17T00:21:26.030Z,7.00
2022-12-17T00:24:20.360Z,7.10
2022-12-17T00:27:06.784Z,7.00
2022-12-17T00:29:52.456Z,7.10
2022-12-17T00:32:37.914Z,7.00
2022-12-17T00:35:25.540Z,6.90
2022-12-17T00:38:11.136Z,6.90
2022-12-17T00:40:57.079Z,6.90
2022-12-17T00:43:44.057Z,6.90
2022-12-17T00:46:30.037Z,6.90
2022-12-17T00:49:16.110Z,6.80
2022-12-17T00:52:01.900Z,6.80
2022-12-17T00:54:47.515Z,6.80
2022-12-17T00:57:33.103Z,6.80
2022-12-17T01:00:19.754Z,6.80
2022-12-17T01:03:08.798Z,6.80
2022-12-17T01:05:54.224Z,6.80
2022-12-17T01:08:41.484Z,6.80
2022-12-17T01:11:27.676Z,6.70
2022-12-17T01:14:13.046Z,6.70
2022-12-17T01:16:59.871Z,6.80
2022-12-17T01:19:45.417Z,6.80
2022-12-17T01:22:33.811Z,6.80
2022-12-17T01:25:19.308Z,6.80
2022-12-17T01:28:09.339Z,6.80
2022-12-17T01:30:59.932Z,6.80
2022-12-17T01:33:46.679Z,6.90
2022-12-17T01:36:34.649Z,6.90
2022-12-17T01:39:20.732Z,6.80
2022-12-17T01:42:06.094Z,6.90
2022-12-17T01:44:57.904Z,6.90
2022-12-17T01:47:51.915Z,7.00
2022-12-17T01:50:39.988Z,7.00
2022-12-17T01:53:26.747Z,7.00
2022-12-17T01:56:12.681Z,7.00
2022-12-17T01:58:59.552Z,7.00
2022-12-17T02:01:45.393Z,7.00
2022-12-17T02:04:42.883Z,7.00
2022-12-17T02:08:04.659Z,6.90
2022-12-17T02:11:32.435Z,6.90
2022-12-17T02:14:34.533Z,6.90
2022-12-17T02:17:26.086Z,6.90
2022-12-17T02:20:36.143Z,6.90
2022-12-17T02:23:46.824Z,6.90
2022-12-17T02:26:54.400Z,6.90
2022-12-17T02:29:45.932Z,6.90
2022-12-17T02:32:43.837Z,6.90
2022-12-17T02:35:38.791Z,7.00
2022-12-17T02:38:45.349Z,7.00
2022-12-17T02:41:47.747Z,7.00
2022-12-17T02:44:40.856Z,6.90
2022-12-17T02:47:28.524Z,6.90
2022-12-17T02:50:14.990Z,6.90
2022-12-17T02:53:08.860Z,6.90
2022-12-17T02:55:55.886Z,6.90
2022-12-17T02:59:15.071Z,6.80
2022-12-17T03:02:03.173Z,6.80
2022-12-17T03:04:50.888Z,6.80
2022-12-17T03:07:36.591Z,6.80
2022-12-17T03:10:22.637Z,6.80
2022-12-17T03:13:10.655Z,6.80
2022-12-17T03:15:56.083Z,6.80
2022-12-17T03:18:41.600Z,6.90
2022-12-17T03:21:27.223Z,6.80
2022-12-17T03:24:12.595Z,6.80
2022-12-17T03:26:58.165Z,6.80
2022-12-17T03:30:02.763Z,6.80
2022-12-17T03:33:14.690Z,6.80
2022-12-17T03:36:00.479Z,6.80
2022-12-17T03:38:45.821Z,6.80
2022-12-17T03:41:32.563Z,6.80
2022-12-17T03:44:20.668Z,6.80
2022-12-17T03:47:11.125Z,6.80
2022-12-17T03:49:56.888Z,6.80
2022-12-17T03:52:43.427Z,6.80
2022-12-17T03:55:30.043Z,6.80
2022-12-17T03:58:18.117Z,6.80
2022-12-17T04:01:15.347Z,6.80
2022-12-17T04:05:00.031Z,6.70
2022-12-17T04:07:24.445Z,6.70
2022-12-17T04:10:11.970Z,6.70
2022-12-17T04:12:57.970Z,6.70
2022-12-17T04:15:44.887Z,6.60
2022-12-17T04:18:30.409Z,6.60
2022-12-17T04:21:16.225Z,6.60
2022-12-17T04:24:01.934Z,6.70
2022-12-17T04:26:49.914Z,6.70
2022-12-17T04:29:37.137Z,6.70
2022-12-17T04:32:23.305Z,6.70
2022-12-17T04:35:08.803Z,6.70
2022-12-17T04:37:55.554Z,6.70
2022-12-17T04:40:41.615Z,6.60
2022-12-17T04:43:30.073Z,6.70
2022-12-17T04:46:26.236Z,6.70
2022-12-17T04:49:46.772Z,6.70
2022-12-17T04:52:33.072Z,6.70
2022-12-17T04:55:18.874Z,6.70
2022-12-17T04:58:07.877Z,6.70
2022-12-17T05:00:54.150Z,6.70
2022-12-17T05:03:41.008Z,6.70
2022-12-17T05:06:28.245Z,6.70
2022-12-17T05:09:15.486Z,6.70
2022-12-17T05:12:00.984Z,6.70
2022-12-17T05:14:46.734Z,6.70
2022-12-17T05:17:32.277Z,6.70
2022-12-17T05:20:45.326Z,6.70
2022-12-17T05:23:31.140Z,6.70
2022-12-17T05:26:44.753Z,6.70
2022-12-17T05:29:31.824Z,6.70
2022-12-17T05:32:17.789Z,6.70
2022-12-17T05:35:04.302Z,6.70
2022-12-17T05:37:50.762Z,6.70
2022-12-17T05:40:36.238Z,6.70
2022-12-17T05:43:49.744Z,6.70
2022-12-17T05:46:35.334Z,6.60
2022-12-17T05:49:20.769Z,6.60
2022-12-17T05:52:06.142Z,6.60
2022-12-17T05:54:58.182Z,6.60
2022-12-17T05:57:43.755Z,6.60
2022-12-17T06:00:29.847Z,6.60
2022-12-17T06:03:17.819Z,6.60
2022-12-17T06:06:03.574Z,6.60
2022-12-17T06:08:49.112Z,6.70
2022-12-17T06:11:35.301Z,6.70
2022-12-17T06:14:22.157Z,6.60
2022-12-17T06:17:07.655Z,6.60
2022-12-17T06:23:29.885Z,6.60
2022-12-17T06:26:16.070Z,6.70
2022-12-17T06:29:02.541Z,6.70
2022-12-17T06:31:48.245Z,6.70
2022-12-17T06:34:33.691Z,6.70
2022-12-17T06:37:19.240Z,6.70
2022-12-17T06:40:04.867Z,6.70
2022-12-17T06:42:50.413Z,6.70
2022-12-17T06:45:44.548Z,6.60
2022-12-17T06:48:30.012Z,6.60
2022-12-17T06:51:15.605Z,6.60
2022-12-17T06:54:01.036Z,6.60
2022-12-17T06:56:50.781Z,6.60
2022-12-17T06:59:36.370Z,6.60
2022-12-17T07:02:21.903Z,6.60
2022-12-17T07:05:07.461Z,6.60
2022-12-17T07:07:53.023Z,6.60
2022-12-17T07:10:39.980Z,6.50
2022-12-17T07:13:28.300Z,6.50
2022-12-17T07:16:14.288Z,6.50
2022-12-17T07:19:00.741Z,6.40
2022-12-17T07:24:44.109Z,6.40
2022-12-17T07:30:55.870Z,6.50
2022-12-17T07:33:46.440Z,6.60
2022-12-17T07:39:44.879Z,6.70
2022-12-17T07:42:37.354Z,6.70
2022-12-17T07:45:33.698Z,6.70
2022-12-17T07:48:32.590Z,6.70
2022-12-17T07:51:18.176Z,6.80
2022-12-17T07:54:08.581Z,6.80
2022-12-17T07:57:01.740Z,6.70
2022-12-17T07:59:54.760Z,6.80
2022-12-17T08:02:44.767Z,6.70
2022-12-17T08:05:38.553Z,6.70
2022-12-17T08:08:34.767Z,6.80
2022-12-17T08:11:27.379Z,6.80
2022-12-17T08:14:38.936Z,6.80
2022-12-17T08:17:24.178Z,6.80
2022-12-17T08:20:12.781Z,6.80
2022-12-17T08:26:02.872Z,6.70
2022-12-17T08:32:08.044Z,6.50
2022-12-17T08:39:15.481Z,6.60
2022-12-17T08:42:12.377Z,6.50
2022-12-17T09:00:36.073Z,6.50
2022-12-17T09:14:08.915Z,6.70
2022-12-17T09:16:57.025Z,6.80
2022-12-17T09:19:42.481Z,6.80
2022-12-17T09:22:28.934Z,6.80
2022-12-17T09:25:15.642Z,6.90
2022-12-17T09:31:37.307Z,6.90
2022-12-17T09:34:43.151Z,6.80
2022-12-17T09:37:39.557Z,6.90
2022-12-17T09:40:43.226Z,7.00
2022-12-17T09:47:50.236Z,7.10
2022-12-17T09:57:20.162Z,7.20
2022-12-17T10:00:09.351Z,7.10
2022-12-17T10:02:58.698Z,7.10
2022-12-17T10:05:48.140Z,7.10
2022-12-17T10:15:42.059Z,7.30
2022-12-17T10:29:17.565Z,7.30
2022-12-17T11:21:09.602Z,8.30
2022-12-17T11:24:08.565Z,8.30
2022-12-17T11:27:07.393Z,8.30
2022-12-17T11:34:38.970Z,8.50
2022-12-17T11:47:09.767Z,9.70
2022-12-17T12:34:47.482Z,11.80
2022-12-17T12:37:39.398Z,11.90
2022-12-17T12:40:54.786Z,11.90
2022-12-17T12:43:56.637Z,12.00
2022-12-17T12:47:07.285Z,12.00
2022-12-17T12:50:13.344Z,12.10
2022-12-17T12:53:03.543Z,12.10
2022-12-17T12:56:02.073Z,12.10
2022-12-17T13:05:16.234Z,12.10
2022-12-17T13:07:56.323Z,12.10
2022-12-17T13:10:42.462Z,12.00
2022-12-17T13:13:31.731Z,12.00
2022-12-17T13:16:38.395Z,12.00
2022-12-17T13:19:38.510Z,12.00
2022-12-17T13:22:24.088Z,12.00
2022-12-17T13:25:18.029Z,12.00
2022-12-17T13:27:45.733Z,12.10
2022-12-17T13:30:24.561Z,12.10
2022-12-17T13:33:25.858Z,12.20
2022-12-17T13:36:28.298Z,12.10
2022-12-17T13:39:16.981Z,12.00
2022-12-17T13:41:47.494Z,11.90
2022-12-17T13:44:29.741Z,11.80
2022-12-17T13:47:02.072Z,11.80
2022-12-17T13:49:32.377Z,11.60
2022-12-17T13:52:11.564Z,11.50
2022-12-17T13:54:39.574Z,11.50
2022-12-17T13:57:34.367Z,11.50
2022-12-17T14:00:06.373Z,11.70
2022-12-17T14:02:55.540Z,12.00
2022-12-17T14:05:48.900Z,12.40
2022-12-17T14:08:19.539Z,12.60
2022-12-17T14:11:18.264Z,12.80
2022-12-17T14:13:48.512Z,13.00
2022-12-17T14:16:18.045Z,13.30
2022-12-17T14:18:54.320Z,13.60
2022-12-17T14:21:28.353Z,13.80
2022-12-17T14:23:58.901Z,14.00
2022-12-17T14:26:29.473Z,14.00
2022-12-17T14:29:02.775Z,13.90
2022-12-17T14:31:37.311Z,14.20
2022-12-17T14:34:11.828Z,14.30
2022-12-17T14:36:45.076Z,14.60
2022-12-17T14:39:28.297Z,14.60
2022-12-17T14:42:25.891Z,14.50
2022-12-17T14:45:19.345Z,14.40
2022-12-17T14:47:59.785Z,14.00
2022-12-17T14:50:33.380Z,13.30
2022-12-17T14:53:32.045Z,12.60
2022-12-17T14:56:04.523Z,12.00
2022-12-17T14:58:46.227Z,11.60
2022-12-17T15:01:14.488Z,11.30
2022-12-17T15:03:46.641Z,11.00
2022-12-17T15:06:18.840Z,10.90
2022-12-17T15:08:49.663Z,10.80
2022-12-17T15:11:21.127Z,10.60
2022-12-17T15:13:54.426Z,10.50
2022-12-17T15:16:24.498Z,10.40
2022-12-17T15:18:51.457Z,10.30
2022-12-17T15:21:23.058Z,10.20
2022-12-17T15:23:53.646Z,10.10
2022-12-17T15:26:24.665Z,10.00
2022-12-17T15:28:55.921Z,9.90
2022-12-17T15:31:35.787Z,9.90
2022-12-17T15:34:07.083Z,9.80
2022-12-17T15:36:40.399Z,9.70
2022-12-17T15:39:15.275Z,9.60
2022-12-17T15:42:06.690Z,9.60
2022-12-17T15:45:16.156Z,9.50
2022-12-17T15:48:49.672Z,9.60
2022-12-17T15:52:36.725Z,9.50
2022-12-17T15:55:34.326Z,9.40
2022-12-17T15:58:02.951Z,9.40
2022-12-17T16:00:32.257Z,9.30
2022-12-17T16:06:35.830Z,9.30
2022-12-17T16:09:09.637Z,9.20
2022-12-17T16:11:38.528Z,9.20
2022-12-17T16:14:08.102Z,9.20
2022-12-17T16:16:38.953Z,9.20
2022-12-17T16:19:15.409Z,9.20
2022-12-17T16:21:46.970Z,9.10
2022-12-17T16:24:19.387Z,9.10
2022-12-17T16:26:48.923Z,9.10
2022-12-17T16:29:24.207Z,9.10
2022-12-17T16:31:52.707Z,9.10
2022-12-17T16:34:21.361Z,9.00
2022-12-17T16:36:53.557Z,9.00
2022-12-17T16:39:22.528Z,9.00
2022-12-17T16:41:49.721Z,9.00
2022-12-17T16:44:21.235Z,8.90
2022-12-17T16:46:49.886Z,8.90
2022-12-17T16:49:34.601Z,8.80
2022-12-17T16:52:06.590Z,8.80
2022-12-17T16:54:39.457Z,8.80
2022-12-17T16:57:08.172Z,8.70
2022-12-17T16:59:54.867Z,8.70
2022-12-17T17:03:09.894Z,8.70
2022-12-17T17:06:22.717Z,8.60
2022-12-17T17:15:59.096Z,8.40
2022-12-17T17:22:16.718Z,8.50
2022-12-17T17:28:59.798Z,8.30
2022-12-17T17:32:08.617Z,8.30
2022-12-17T17:34:47.899Z,8.30
2022-12-17T17:37:17.524Z,8.30
2022-12-17T17:40:01.775Z,8.20
2022-12-17T17:42:46.143Z,8.10
2022-12-17T18:14:08.758Z,7.40
2022-12-17T18:30:23.002Z,7.50
2022-12-17T18:33:01.050Z,7.40
2022-12-17T18:36:01.435Z,7.30
2022-12-17T18:38:32.646Z,7.20
2022-12-17T18:41:38.328Z,7.10
2022-12-17T18:44:26.823Z,7.10
2022-12-17T18:46:55.879Z,7.20
2022-12-17T18:49:27.010Z,7.10
2022-12-17T18:51:55.747Z,7.00
2022-12-17T18:57:14.915Z,6.90
2022-12-17T18:59:41.899Z,6.70
2022-12-17T19:02:17.414Z,6.70
2022-12-17T19:04:44.650Z,6.70
2022-12-17T19:07:12.997Z,6.90
2022-12-17T19:09:40.593Z,6.90
2022-12-17T19:12:10.201Z,6.80
2022-12-17T19:14:37.320Z,6.80
2022-12-17T19:17:05.992Z,6.80
2022-12-17T19:19:41.892Z,6.70
2022-12-17T19:22:50.875Z,6.70
2022-12-17T19:25:43.737Z,6.80
2022-12-17T19:28:35.750Z,6.70
2022-12-17T19:31:06.023Z,6.70
2022-12-17T19:33:39.359Z,6.70
2022-12-17T19:36:26.713Z,6.80
2022-12-17T19:39:00.226Z,6.70
2022-12-17T19:41:29.793Z,6.70
2022-12-17T19:43:59.847Z,6.60
2022-12-17T19:46:33.812Z,6.60
2022-12-17T19:49:06.071Z,6.50
2022-12-17T19:51:36.040Z,6.40
2022-12-17T19:54:08.529Z,6.30
2022-12-17T19:56:41.116Z,6.20
2022-12-17T19:59:19.602Z,6.20
2022-12-17T20:02:02.439Z,6.30
2022-12-17T20:04:35.753Z,6.30
2022-12-17T20:07:11.904Z,6.20
2022-12-17T20:09:50.056Z,6.20
2022-12-17T20:12:20.712Z,6.20
2022-12-17T20:15:04.705Z,6.10
2022-12-17T20:17:38.638Z,6.00
2022-12-17T20:20:06.437Z,5.90
2022-12-17T20:22:39.206Z,5.90
2022-12-17T20:25:09.513Z,5.80
2022-12-17T20:27:38.463Z,5.90
2022-12-17T20:30:13.948Z,5.80
2022-12-17T20:32:54.200Z,5.80
2022-12-17T20:35:24.772Z,5.80
2022-12-17T20:38:03.016Z,5.80
2022-12-17T20:40:30.179Z,5.80
2022-12-17T20:43:09.718Z,5.80
2022-12-17T20:45:42.895Z,5.80
2022-12-17T20:48:41.662Z,5.90
2022-12-17T20:51:27.732Z,6.10
2022-12-17T20:53:56.300Z,6.10
2022-12-17T20:56:26.232Z,6.10
2022-12-17T20:58:58.542Z,6.10
2022-12-17T21:01:28.523Z,6.10
2022-12-17T21:03:57.342Z,6.10
2022-12-17T21:06:28.588Z,6.10
2022-12-17T21:08:56.394Z,6.10
2022-12-17T21:11:26.389Z,6.10
2022-12-17T21:13:54.581Z,6.00
2022-12-17T21:16:26.673Z,5.90
2022-12-17T21:18:55.109Z,5.90
2022-12-17T21:21:24.803Z,5.90
2022-12-17T21:24:24.648Z,5.80
2022-12-17T21:26:51.757Z,5.90
2022-12-17T21:29:19.187Z,5.90
2022-12-17T21:31:57.671Z,5.90
2022-12-17T21:34:29.884Z,6.00
2022-12-17T21:36:57.169Z,6.00
2022-12-17T21:39:25.744Z,6.00
2022-12-17T21:42:13.904Z,6.00
2022-12-17T21:44:41.168Z,6.00
2022-12-17T21:47:08.398Z,6.20
2022-12-17T21:49:36.643Z,6.30
2022-12-17T21:52:20.142Z,6.30
2022-12-17T21:54:47.426Z,6.40
2022-12-17T21:57:15.264Z,6.30
2022-12-17T21:59:43.967Z,6.40
2022-12-17T22:02:13.565Z,6.40
2022-12-17T22:04:40.941Z,6.30
2022-12-17T22:07:27.190Z,6.40
2022-12-17T22:10:29.820Z,6.30
2022-12-17T22:13:24.337Z,6.30
2022-12-17T22:15:56.617Z,6.30
2022-12-17T22:18:27.613Z,6.20
2022-12-17T22:21:02.496Z,6.30
2022-12-17T22:23:30.252Z,6.20
2022-12-17T22:25:59.019Z,6.10
2022-12-17T22:28:26.232Z,5.90
2022-12-17T22:31:11.747Z,5.90
2022-12-17T22:34:39.360Z,5.90
2022-12-17T22:38:41.694Z,5.80
2022-12-17T22:43:30.922Z,5.80
2022-12-17T22:44:36.108Z,5.70
2022-12-17T22:45:13.077Z,5.50
2022-12-17T22:47:40.728Z,5.40
2022-12-17T22:50:12.299Z,5.40
2022-12-17T22:52:39.911Z,5.40
2022-12-17T22:55:08.084Z,5.40
2022-12-17T22:57:39.003Z,5.40
2022-12-17T23:00:24.346Z,5.30
2022-12-17T23:02:57.810Z,5.30
2022-12-17T23:05:29.445Z,5.30
2022-12-17T23:08:03.402Z,5.30
2022-12-17T23:10:30.913Z,5.30
2022-12-17T23:12:59.344Z,5.30
2022-12-17T23:15:38.766Z,5.30
2022-12-17T23:18:09.759Z,5.20
2022-12-17T23:20:37.999Z,5.00
2022-12-17T23:23:08.521Z,5.10
2022-12-17T23:25:38.598Z,5.10
2022-12-17T23:28:05.982Z,5.10
2022-12-17T23:30:38.202Z,5.10
2022-12-17T23:33:07.052Z,5.10
2022-12-17T23:35:34.405Z,5.10
2022-12-17T23:38:03.566Z,5.20
2022-12-17T23:40:31.912Z,5.20
2022-12-17T23:43:00.731Z,5.30
2022-12-17T23:45:31.741Z,5.30
2022-12-17T23:48:13.643Z,5.30
2022-12-17T23:50:46.802Z,5.30
2022-12-17T23:53:18.947Z,5.50
2022-12-17T23:55:45.994Z,5.60
2022-12-17T23:58:15.785Z,5.60
